createdAt,value
2018-07-28T00:00:35.811Z,6.07
2018-07-28T00:03:06.483Z,5.70
2018-07-28T00:05:37.188Z,6.13
2018-07-28T00:08:07.849Z,4.80
2018-07-28T00:10:38.639Z,4.80
2018-07-28T00:13:09.312Z,5.67
2018-07-28T00:15:40.020Z,5.03
2018-07-28T00:18:10.678Z,5.30
2018-07-28T00:20:41.352Z,5.13
2018-07-28T00:23:12.084Z,5.43
2018-07-28T00:25:47.804Z,4.90
2018-07-28T00:28:18.596Z,4.90
2018-07-28T00:30:49.380Z,4.67
2018-07-28T00:33:20.038Z,5.33
2018-07-28T00:35:50.692Z,4.73
2018-07-28T00:38:21.415Z,6.43
2018-07-28T00:40:52.158Z,4.17
2018-07-28T00:43:22.875Z,5.73
2018-07-28T00:45:53.510Z,4.87
2018-07-28T00:48:24.179Z,6.03
2018-07-28T00:50:54.908Z,6.07
2018-07-28T00:53:25.609Z,10.93
2018-07-28T00:55:56.327Z,11.70
2018-07-28T00:58:27.061Z,4.30
2018-07-28T01:00:57.425Z,4.63
2018-07-28T01:03:27.994Z,4.07
2018-07-28T01:05:58.636Z,4.43
2018-07-28T01:08:29.320Z,5.53
2018-07-28T01:11:00.004Z,5.33
2018-07-28T01:13:30.712Z,4.30
2018-07-28T01:16:01.416Z,5.47
2018-07-28T01:18:32.163Z,5.73
2018-07-28T01:21:02.920Z,4.73
2018-07-28T01:23:33.748Z,4.60
2018-07-28T01:26:04.632Z,4.83
2018-07-28T01:28:35.414Z,4.53
2018-07-28T01:31:06.148Z,4.87
2018-07-28T01:33:36.932Z,5.20
2018-07-28T01:36:07.707Z,5.33
2018-07-28T01:38:38.368Z,5.30
2018-07-28T01:41:09.054Z,6.13
2018-07-28T01:43:39.769Z,5.77
2018-07-28T01:46:10.423Z,5.23
2018-07-28T01:48:41.072Z,5.90
2018-07-28T01:51:11.714Z,4.50
2018-07-28T01:53:42.372Z,4.97
2018-07-28T01:56:13.028Z,7.43
2018-07-28T01:58:43.828Z,5.37
2018-07-28T02:01:14.508Z,5.67
2018-07-28T02:03:51.665Z,6.07
2018-07-28T02:06:22.336Z,5.70
2018-07-28T02:08:53.606Z,4.70
2018-07-28T02:11:24.614Z,4.83
2018-07-28T02:13:55.250Z,5.43
2018-07-28T02:16:25.934Z,4.93
2018-07-28T02:18:56.637Z,5.00
2018-07-28T02:21:27.328Z,4.93
2018-07-28T02:23:57.969Z,5.93
2018-07-28T02:26:28.678Z,5.27
2018-07-28T02:28:59.333Z,4.80
2018-07-28T02:31:30.019Z,5.07
2018-07-28T02:34:00.637Z,5.40
2018-07-28T02:36:31.300Z,6.60
2018-07-28T02:39:02.010Z,4.70
2018-07-28T02:41:32.732Z,5.03
2018-07-28T02:44:03.677Z,5.43
2018-07-28T02:46:34.374Z,6.03
2018-07-28T02:49:05.166Z,5.50
2018-07-28T02:51:35.472Z,5.43
2018-07-28T02:54:06.166Z,6.23
2018-07-28T02:56:36.855Z,4.50
2018-07-28T02:59:07.522Z,5.10
2018-07-28T03:01:38.299Z,5.43
2018-07-28T03:04:08.971Z,5.17
2018-07-28T03:06:39.624Z,5.60
2018-07-28T03:09:12.296Z,5.33
2018-07-28T03:11:43.140Z,5.03
2018-07-28T03:14:13.828Z,5.63
2018-07-28T03:16:44.496Z,4.83
2018-07-28T03:19:15.140Z,6.27
2018-07-28T03:21:47.403Z,5.43
2018-07-28T03:24:18.075Z,5.70
2018-07-28T03:26:49.777Z,6.97
2018-07-28T03:29:20.386Z,5.07
2018-07-28T03:31:51.483Z,5.73
2018-07-28T03:34:22.263Z,8.80
2018-07-28T03:36:53.103Z,9.57
2018-07-28T03:39:23.787Z,8.50
2018-07-28T03:41:54.435Z,5.80
2018-07-28T03:44:25.210Z,6.33
2018-07-28T03:46:55.896Z,7.77
2018-07-28T03:49:26.663Z,6.27
2018-07-28T03:52:02.611Z,8.10
2018-07-28T03:54:33.242Z,8.60
2018-07-28T03:57:04.607Z,10.90
2018-07-28T03:59:35.615Z,11.27
2018-07-28T04:02:06.388Z,9.47
2018-07-28T04:04:37.095Z,10.87
2018-07-28T04:07:07.722Z,8.40
2018-07-28T04:09:38.399Z,8.63
2018-07-28T04:12:09.084Z,11.60
2018-07-28T04:14:39.766Z,8.23
2018-07-28T04:17:15.656Z,10.10
2018-07-28T04:19:46.304Z,10.90
2018-07-28T04:22:16.935Z,12.10
2018-07-28T04:24:47.637Z,8.47
2018-07-28T04:27:18.285Z,8.63
2018-07-28T04:29:48.963Z,9.43
2018-07-28T04:32:19.600Z,10.40
2018-07-28T04:34:50.251Z,7.90
2018-07-28T04:37:20.935Z,9.33
2018-07-28T04:39:51.587Z,14.00
2018-07-28T04:42:22.254Z,11.57
2018-07-28T04:44:52.987Z,6.60
2018-07-28T04:47:23.618Z,11.90
2018-07-28T04:49:54.266Z,12.20
2018-07-28T04:52:24.963Z,9.07
2018-07-28T04:54:55.682Z,7.63
2018-07-28T04:57:26.652Z,9.23
2018-07-28T04:59:57.432Z,12.70
2018-07-28T05:02:28.814Z,9.47
2018-07-28T05:04:59.515Z,9.23
2018-07-28T05:07:30.225Z,8.50
2018-07-28T05:10:00.865Z,7.80
2018-07-28T05:12:31.537Z,7.20
2018-07-28T05:15:02.241Z,10.20
2018-07-28T05:17:32.937Z,15.30
2018-07-28T05:20:03.633Z,9.93
2018-07-28T05:22:34.389Z,11.23
2018-07-28T05:25:05.068Z,9.10
2018-07-28T05:27:35.764Z,8.03
2018-07-28T05:30:09.136Z,9.40
2018-07-28T05:32:39.803Z,15.57
2018-07-28T05:35:11.188Z,10.50
2018-07-28T05:37:41.965Z,11.83
2018-07-28T05:40:12.636Z,12.27
2018-07-28T05:42:43.364Z,11.03
2018-07-28T05:45:14.051Z,8.60
2018-07-28T05:47:45.416Z,9.77
2018-07-28T05:50:16.118Z,12.97
2018-07-28T05:52:46.956Z,12.00
2018-07-28T05:55:17.684Z,9.27
2018-07-28T05:57:48.438Z,9.47
2018-07-28T06:00:19.144Z,14.30
2018-07-28T06:02:49.975Z,9.60
2018-07-28T06:05:20.603Z,10.77
2018-07-28T06:07:51.294Z,9.73
2018-07-28T06:10:21.947Z,11.90
2018-07-28T06:12:52.654Z,14.17
2018-07-28T06:15:23.453Z,11.63
2018-07-28T06:17:54.498Z,10.50
2018-07-28T06:20:25.305Z,8.17
2018-07-28T06:22:56.589Z,8.53
2018-07-28T06:25:27.357Z,11.03
2018-07-28T06:27:58.033Z,11.00
2018-07-28T06:30:28.399Z,9.00
2018-07-28T06:32:58.913Z,11.20
2018-07-28T06:35:30.136Z,9.90
2018-07-28T06:38:00.831Z,11.47
2018-07-28T06:40:31.491Z,12.33
2018-07-28T06:43:02.158Z,10.40
2018-07-28T06:45:32.807Z,9.27
2018-07-28T06:48:03.596Z,10.17
2018-07-28T06:50:34.249Z,10.50
2018-07-28T06:53:04.959Z,9.70
2018-07-28T06:55:35.673Z,9.83
2018-07-28T06:58:06.757Z,9.10
2018-07-28T07:00:37.487Z,10.47
2018-07-28T07:03:08.208Z,10.63
2018-07-28T07:05:38.951Z,11.47
2018-07-28T07:08:09.596Z,8.00
2018-07-28T07:10:40.294Z,10.87
2018-07-28T07:13:11.075Z,11.07
2018-07-28T07:15:41.953Z,9.80
2018-07-28T07:18:12.713Z,7.83
2018-07-28T07:20:43.585Z,11.63
2018-07-28T07:23:14.284Z,9.10
2018-07-28T07:25:44.948Z,8.97
2018-07-28T07:28:15.672Z,8.63
2018-07-28T07:30:46.363Z,10.87
2018-07-28T07:33:17.076Z,12.50
2018-07-28T07:35:47.836Z,11.37
2018-07-28T07:38:18.564Z,10.20
2018-07-28T07:40:49.330Z,14.03
2018-07-28T07:43:19.997Z,10.03
2018-07-28T07:45:50.723Z,10.60
2018-07-28T07:48:21.348Z,7.97
2018-07-28T07:50:52.021Z,8.77
2018-07-28T07:53:22.696Z,7.27
2018-07-28T07:55:53.329Z,8.13
2018-07-28T07:58:23.964Z,9.73
2018-07-28T08:00:54.677Z,7.60
2018-07-28T08:03:25.343Z,9.03
2018-07-28T08:05:56.107Z,9.97
2018-07-28T08:08:26.884Z,10.87
2018-07-28T08:10:57.500Z,10.63
2018-07-28T08:13:28.166Z,11.23
2018-07-28T08:15:58.818Z,10.73
2018-07-28T08:18:29.531Z,13.30
2018-07-28T08:21:00.249Z,12.70
2018-07-28T08:23:31.002Z,8.63
2018-07-28T08:26:01.680Z,10.77
2018-07-28T08:28:32.368Z,11.10
2018-07-28T08:31:03.053Z,10.73
2018-07-28T08:33:33.760Z,8.87
2018-07-28T08:36:04.536Z,11.90
2018-07-28T08:38:35.272Z,14.30
2018-07-28T08:41:06.097Z,9.27
2018-07-28T08:43:36.787Z,8.37
2018-07-28T08:46:07.770Z,10.20
2018-07-28T08:48:38.414Z,8.87
2018-07-28T08:51:09.164Z,10.03
2018-07-28T08:53:40.266Z,11.53
2018-07-28T08:56:10.960Z,15.63
2018-07-28T08:58:42.213Z,8.30
2018-07-28T09:01:13.616Z,10.10
2018-07-28T09:03:44.328Z,9.30
2018-07-28T09:06:15.638Z,8.53
2018-07-28T09:08:46.341Z,10.27
2018-07-28T09:11:18.059Z,8.63
2018-07-28T09:13:48.833Z,13.37
2018-07-28T09:16:19.629Z,9.23
2018-07-28T09:18:50.305Z,10.20
2018-07-28T09:21:21.615Z,11.77
2018-07-28T09:23:52.344Z,11.00
2018-07-28T09:26:23.115Z,9.30
2018-07-28T09:28:53.821Z,11.47
2018-07-28T09:31:24.569Z,11.90
2018-07-28T09:33:55.373Z,10.10
2018-07-28T09:36:26.170Z,15.83
2018-07-28T09:38:56.835Z,12.57
2018-07-28T09:41:27.544Z,10.73
2018-07-28T09:43:58.178Z,11.73
2018-07-28T09:46:28.834Z,12.27
2018-07-28T09:48:59.577Z,8.83
2018-07-28T09:51:30.968Z,14.57
2018-07-28T09:54:01.607Z,12.57
2018-07-28T09:56:32.297Z,12.83
2018-07-28T09:59:02.972Z,8.47
2018-07-28T10:01:33.612Z,12.57
2018-07-28T10:04:04.393Z,11.90
2018-07-28T10:06:35.079Z,9.60
2018-07-28T10:09:10.455Z,14.37
2018-07-28T10:11:41.170Z,13.40
2018-07-28T10:14:11.791Z,11.93
2018-07-28T10:16:42.537Z,14.40
2018-07-28T10:19:13.216Z,10.97
2018-07-28T10:21:43.956Z,10.33
2018-07-28T10:24:14.633Z,9.93
2018-07-28T10:26:45.303Z,10.93
2018-07-28T10:29:15.980Z,10.93
2018-07-28T10:31:46.613Z,8.77
2018-07-28T10:34:17.237Z,9.60
2018-07-28T10:36:47.933Z,8.27
2018-07-28T10:39:18.590Z,6.47
2018-07-28T10:41:49.283Z,6.07
2018-07-28T10:44:19.960Z,10.70
2018-07-28T10:46:50.664Z,9.50
2018-07-28T10:49:21.324Z,6.33
2018-07-28T10:51:52.048Z,7.00
2018-07-28T10:54:22.965Z,6.80
2018-07-28T10:56:53.597Z,6.60
2018-07-28T10:59:24.233Z,9.53
2018-07-28T11:01:54.922Z,5.47
2018-07-28T11:04:25.544Z,5.03
2018-07-28T11:06:56.228Z,5.83
2018-07-28T11:09:26.862Z,5.20
2018-07-28T11:11:57.519Z,6.53
2018-07-28T11:14:27.868Z,5.10
2018-07-28T11:16:58.449Z,6.90
2018-07-28T11:19:29.135Z,6.07
2018-07-28T11:21:59.839Z,6.07
2018-07-28T11:24:30.488Z,7.03
2018-07-28T11:27:01.187Z,5.43
2018-07-28T11:29:31.810Z,6.20
2018-07-28T11:33:16.809Z,6.97
2018-07-28T11:36:04.197Z,6.30
2018-07-28T11:38:51.653Z,6.83
2018-07-28T11:41:38.970Z,5.83
2018-07-28T11:44:59.487Z,5.33
2018-07-28T11:47:30.135Z,5.00
2018-07-28T11:50:00.780Z,5.83
2018-07-28T11:52:31.419Z,5.27
2018-07-28T11:55:02.109Z,5.03
2018-07-28T11:57:32.739Z,3.80
2018-07-28T12:00:03.531Z,4.33
2018-07-28T12:02:34.197Z,4.53
2018-07-28T12:05:05.068Z,4.90
2018-07-28T12:07:35.842Z,4.17
2018-07-28T12:10:09.015Z,4.70
2018-07-28T12:12:39.734Z,5.97
2018-07-28T12:15:16.067Z,3.17
2018-07-28T12:17:46.697Z,3.53
2018-07-28T12:20:17.375Z,3.60
2018-07-28T12:22:48.090Z,4.43
2018-07-28T12:25:18.719Z,3.33
2018-07-28T12:27:49.412Z,4.67
2018-07-28T12:30:20.046Z,4.80
2018-07-28T12:32:50.692Z,3.77
2018-07-28T12:35:21.345Z,5.23
2018-07-28T12:37:52.030Z,3.40
2018-07-28T12:40:22.700Z,3.77
2018-07-28T12:42:53.326Z,4.07
2018-07-28T12:45:23.973Z,5.03
2018-07-28T12:47:54.611Z,4.37
2018-07-28T12:50:25.274Z,4.60
2018-07-28T12:52:56.043Z,4.20
2018-07-28T12:55:26.729Z,4.23
2018-07-28T12:57:57.410Z,4.10
2018-07-28T13:00:28.047Z,4.27
2018-07-28T13:02:58.824Z,5.40
2018-07-28T13:05:29.466Z,4.40
2018-07-28T13:08:00.100Z,4.33
2018-07-28T13:10:30.748Z,5.57
2018-07-28T13:13:01.428Z,4.67
2018-07-28T13:15:32.099Z,6.63
2018-07-28T13:18:02.752Z,4.73
2018-07-28T13:20:33.394Z,5.60
2018-07-28T13:23:04.045Z,5.33
2018-07-28T13:25:34.368Z,5.50
2018-07-28T13:28:04.935Z,5.40
2018-07-28T13:30:35.623Z,5.70
2018-07-28T13:33:06.342Z,5.73
2018-07-28T13:35:37.053Z,4.93
2018-07-28T13:38:07.687Z,5.93
2018-07-28T13:40:38.362Z,5.50
2018-07-28T13:43:08.977Z,5.60
2018-07-28T13:45:39.603Z,5.43
2018-07-28T13:48:10.240Z,7.47
2018-07-28T13:50:40.912Z,4.73
2018-07-28T13:53:11.586Z,6.90
2018-07-28T13:55:42.234Z,4.43
2018-07-28T13:58:12.829Z,6.60
2018-07-28T14:00:43.538Z,5.00
2018-07-28T14:03:14.169Z,7.17
2018-07-28T14:05:44.807Z,4.83
2018-07-28T14:08:15.481Z,4.67
2018-07-28T14:10:46.188Z,5.07
2018-07-28T14:13:16.851Z,4.90
2018-07-28T14:15:47.520Z,5.07
2018-07-28T14:18:18.241Z,5.27
2018-07-28T14:20:48.940Z,4.23
2018-07-28T14:23:19.669Z,3.97
2018-07-28T14:25:50.325Z,4.10
2018-07-28T14:28:21.025Z,4.97
2018-07-28T14:30:51.956Z,4.97
2018-07-28T14:33:22.601Z,5.30
2018-07-28T14:35:53.279Z,3.90
2018-07-28T14:38:23.979Z,3.77
2018-07-28T14:40:54.691Z,3.97
2018-07-28T14:43:25.430Z,4.77
2018-07-28T14:45:56.102Z,4.50
2018-07-28T14:48:26.836Z,8.17
2018-07-28T14:50:57.518Z,3.90
2018-07-28T14:53:28.194Z,3.53
2018-07-28T14:55:58.816Z,4.30
2018-07-28T14:58:29.507Z,4.37
2018-07-28T15:01:00.422Z,4.20
2018-07-28T15:03:31.111Z,4.07
2018-07-28T15:06:02.073Z,4.17
2018-07-28T15:08:32.800Z,4.07
2018-07-28T15:11:03.506Z,4.20
2018-07-28T15:13:34.187Z,4.27
2018-07-28T15:16:04.753Z,3.60
2018-07-28T15:18:35.347Z,3.80
2018-07-28T15:21:06.015Z,3.73
2018-07-28T15:23:36.643Z,3.50
2018-07-28T15:26:07.342Z,3.57
2018-07-28T15:28:38.071Z,4.33
2018-07-28T15:31:08.882Z,3.50
2018-07-28T15:33:39.525Z,3.73
2018-07-28T15:36:10.679Z,4.60
2018-07-28T15:38:41.340Z,3.77
2018-07-28T15:41:12.005Z,4.73
2018-07-28T15:43:42.717Z,3.77
2018-07-28T15:46:13.430Z,3.90
2018-07-28T15:48:44.133Z,4.90
2018-07-28T15:51:14.842Z,3.90
2018-07-28T15:53:46.618Z,4.20
2018-07-28T15:56:17.366Z,3.40
2018-07-28T15:58:48.629Z,3.53
2018-07-28T16:01:19.296Z,3.40
2018-07-28T16:04:04.727Z,3.40
2018-07-28T16:06:35.418Z,4.27
2018-07-28T16:09:09.258Z,4.00
2018-07-28T16:11:39.961Z,6.13
2018-07-28T16:14:10.651Z,3.53
2018-07-28T16:16:41.296Z,3.37
2018-07-28T16:19:12.017Z,3.60
2018-07-28T16:21:42.697Z,4.03
2018-07-28T16:24:13.375Z,3.10
2018-07-28T16:26:44.940Z,3.30
2018-07-28T16:29:15.628Z,6.30
2018-07-28T16:31:46.430Z,4.57
2018-07-28T16:34:17.087Z,4.93
2018-07-28T16:36:47.791Z,5.23
2018-07-28T16:39:18.549Z,6.40
2018-07-28T16:41:49.315Z,6.10
2018-07-28T16:44:20.017Z,6.13
2018-07-28T16:46:50.772Z,8.80
2018-07-28T16:49:21.485Z,10.63
2018-07-28T16:51:52.217Z,10.07
2018-07-28T16:54:22.855Z,7.23
2018-07-28T16:56:53.580Z,8.93
2018-07-28T16:59:24.243Z,7.43
2018-07-28T17:01:54.895Z,6.40
2018-07-28T17:04:25.596Z,7.23
2018-07-28T17:06:56.323Z,7.60
2018-07-28T17:09:27.038Z,7.53
2018-07-28T17:11:57.707Z,9.03
2018-07-28T17:14:28.370Z,10.07
2018-07-28T17:16:59.096Z,9.97
2018-07-28T17:19:29.752Z,9.57
2018-07-28T17:22:00.467Z,9.27
2018-07-28T17:24:31.105Z,12.00
2018-07-28T17:27:01.472Z,14.50
2018-07-28T17:29:32.043Z,9.97
2018-07-28T17:32:02.768Z,11.87
2018-07-28T17:34:33.428Z,10.43
2018-07-28T17:37:04.139Z,8.53
2018-07-28T17:39:34.831Z,9.60
2018-07-28T17:42:05.568Z,12.17
2018-07-28T17:44:36.232Z,10.83
2018-07-28T17:47:06.960Z,8.43
2018-07-28T17:49:37.696Z,10.50
2018-07-28T17:52:08.725Z,10.90
2018-07-28T17:54:39.362Z,10.03
2018-07-28T17:57:10.076Z,10.63
2018-07-28T17:59:41.443Z,11.97
2018-07-28T18:02:12.455Z,7.87
2018-07-28T18:04:43.058Z,9.47
2018-07-28T18:07:13.761Z,9.80
2018-07-28T18:09:44.466Z,8.37
2018-07-28T18:12:15.120Z,9.20
2018-07-28T18:14:45.791Z,6.13
2018-07-28T18:17:16.506Z,6.53
2018-07-28T18:19:47.183Z,9.30
2018-07-28T18:22:17.931Z,9.07
2018-07-28T18:24:48.604Z,9.80
2018-07-28T18:27:19.339Z,10.97
2018-07-28T18:29:49.909Z,9.03
2018-07-28T18:32:20.620Z,8.70
2018-07-28T18:34:51.691Z,7.50
2018-07-28T18:37:22.410Z,10.50
2018-07-28T18:39:53.104Z,6.73
2018-07-28T18:42:23.809Z,10.07
2018-07-28T18:44:54.460Z,7.60
2018-07-28T18:47:25.119Z,7.80
2018-07-28T18:49:55.760Z,6.70
2018-07-28T18:52:26.447Z,8.23
2018-07-28T18:54:57.187Z,6.73
2018-07-28T18:57:27.923Z,8.67
2018-07-28T18:59:58.621Z,7.50
2018-07-28T19:02:29.455Z,9.20
2018-07-28T19:05:00.113Z,7.17
2018-07-28T19:07:30.835Z,8.43
2018-07-28T19:10:02.468Z,8.70
2018-07-28T19:12:38.316Z,9.33
2018-07-28T19:15:08.938Z,7.90
2018-07-28T19:17:44.890Z,6.80
2018-07-28T19:20:15.562Z,5.97
2018-07-28T19:22:51.561Z,6.97
2018-07-28T19:25:22.247Z,7.20
2018-07-28T19:27:58.233Z,7.00
2018-07-28T19:30:28.918Z,10.27
2018-07-28T19:32:59.597Z,8.27
2018-07-28T19:36:32.975Z,8.53
2018-07-28T19:39:03.845Z,8.67
2018-07-28T19:41:39.684Z,10.40
2018-07-28T19:44:11.120Z,7.10
2018-07-28T19:46:42.034Z,8.23
2018-07-28T19:49:12.674Z,9.20
2018-07-28T19:51:43.379Z,9.80
2018-07-28T19:54:14.996Z,8.67
2018-07-28T19:56:45.908Z,8.20
2018-07-28T19:59:16.536Z,9.20
2018-07-28T20:01:47.280Z,10.33
2018-07-28T20:04:18.015Z,8.13
2018-07-28T20:06:50.656Z,10.87
2018-07-28T20:09:21.840Z,13.37
2018-07-28T20:11:52.597Z,10.13
2018-07-28T20:14:23.243Z,8.50
2018-07-28T20:16:53.589Z,13.17
2018-07-28T20:19:25.118Z,7.07
2018-07-28T20:21:55.798Z,6.27
2018-07-28T20:24:26.600Z,12.93
2018-07-28T20:26:57.932Z,11.67
2018-07-28T20:29:29.324Z,10.40
2018-07-28T20:32:00.858Z,8.40
2018-07-28T20:34:32.682Z,10.90
2018-07-28T20:37:03.490Z,12.50
2018-07-28T20:39:34.237Z,8.43
2018-07-28T20:42:04.946Z,11.40
2018-07-28T20:44:35.612Z,9.87
2018-07-28T20:47:08.283Z,10.67
2018-07-28T20:49:40.589Z,12.30
2018-07-28T20:52:13.069Z,10.07
2018-07-28T20:54:43.814Z,10.77
2018-07-28T20:57:14.538Z,10.63
2018-07-28T20:59:45.242Z,10.33
2018-07-28T21:02:15.912Z,10.67
2018-07-28T21:04:46.588Z,12.70
2018-07-28T21:07:17.281Z,9.17
2018-07-28T21:09:49.348Z,9.83
2018-07-28T21:15:05.711Z,7.43
2018-07-28T21:17:36.664Z,7.43
2018-07-28T21:20:07.412Z,8.37
2018-07-28T21:22:38.110Z,8.17
2018-07-28T21:25:08.836Z,10.00
2018-07-28T21:27:39.532Z,11.33
2018-07-28T21:30:10.251Z,6.60
2018-07-28T21:32:40.941Z,9.23
2018-07-28T21:35:11.628Z,9.77
2018-07-28T21:37:42.297Z,8.17
2018-07-28T21:40:13.008Z,10.17
2018-07-28T21:42:43.684Z,7.70
2018-07-28T21:45:14.465Z,8.07
2018-07-28T21:47:46.081Z,8.50
2018-07-28T21:50:16.812Z,7.80
2018-07-28T21:52:47.484Z,9.60
2018-07-28T21:55:18.168Z,9.93
2018-07-28T21:57:48.875Z,8.47
2018-07-28T22:00:19.584Z,7.83
2018-07-28T22:02:49.919Z,7.07
2018-07-28T22:05:21.265Z,10.20
2018-07-28T22:07:52.362Z,10.60
2018-07-28T22:10:23.082Z,8.10
2018-07-28T22:12:53.729Z,8.67
2018-07-28T22:15:24.412Z,8.07
2018-07-28T22:17:55.099Z,9.97
2018-07-28T22:20:25.790Z,7.50
2018-07-28T22:22:56.440Z,9.77
2018-07-28T22:25:27.072Z,9.80
2018-07-28T22:27:57.830Z,8.33
2018-07-28T22:30:28.568Z,7.63
2018-07-28T22:32:59.305Z,8.60
2018-07-28T22:35:30.047Z,9.23
2018-07-28T22:38:00.729Z,7.70
2018-07-28T22:40:31.404Z,7.83
2018-07-28T22:43:02.131Z,6.30
2018-07-28T22:45:32.801Z,6.50
2018-07-28T22:48:03.668Z,9.67
2018-07-28T22:50:34.355Z,8.27
2018-07-28T22:53:05.118Z,8.77
2018-07-28T22:55:35.822Z,8.83
2018-07-28T22:58:06.491Z,7.60
2018-07-28T23:00:37.161Z,9.37
2018-07-28T23:03:07.907Z,8.90
2018-07-28T23:05:38.600Z,7.43
2018-07-28T23:08:09.288Z,10.53
2018-07-28T23:10:40.019Z,11.27
2018-07-28T23:13:10.670Z,9.00
2018-07-28T23:15:41.329Z,8.90
2018-07-28T23:18:12.088Z,9.40
2018-07-28T23:20:42.781Z,8.47
2018-07-28T23:23:13.967Z,7.37
2018-07-28T23:25:44.622Z,9.90
2018-07-28T23:28:15.363Z,7.83
2018-07-28T23:30:46.032Z,10.43
2018-07-28T23:33:16.753Z,8.50
2018-07-28T23:35:47.392Z,7.93
2018-07-28T23:38:18.111Z,9.23
2018-07-28T23:40:48.805Z,10.77
2018-07-28T23:43:19.515Z,11.67
2018-07-28T23:45:50.189Z,9.30
2018-07-28T23:48:20.880Z,8.00
2018-07-28T23:50:51.578Z,8.77
2018-07-28T23:53:22.256Z,8.67
2018-07-28T23:55:52.988Z,8.07
2018-07-28T23:58:23.660Z,9.67
